Time;durP1;ratioP1;P1;durP2;ratioP2;P2;SDS_P1;SDS_P2;PMS_P1;PMS_P2;Temp;Humidity;BMP_temperature;BMP_pressure;BME280_temperature;BME280_humidity;BME280_pressure;Samples;Min_cycle;Max_cycle;Signal;HPM_P1;HPM_P2
2022/09/03 00:02:03;;;;;;;;;;;20.30;71.20;;;;;;5042910;28;87036;-45
2022/09/03 00:04:39;;;;;;;;;;;20.30;71.20;;;;;;5042818;28;86878;-48
2022/09/03 00:07:10;;;;;;;;;;;20.20;71.20;;;;;;5043095;27;86909;-46
2022/09/03 00:09:41;;;;;;;;;;;20.20;71.10;;;;;;5042356;28;86670;-45
2022/09/03 00:12:25;;;;;;;;;;;20.20;71.10;;;;;;5042943;28;87054;-45
2022/09/03 00:15:00;;;;;;;;;;;20.20;71.10;;;;;;5042296;28;88936;-45
2022/09/03 00:17:37;;;;;;;;;;;20.20;71.10;;;;;;5041637;28;88884;-44
2022/09/03 00:20:03;;;;;;;;;;;20.20;71.10;;;;;;5045504;28;86893;-44
2022/09/03 00:22:32;;;;;;;;;;;20.20;71.10;;;;;;5042500;28;87954;-45
2022/09/03 00:24:59;;;;;;;;;;;20.20;71.20;;;;;;5042577;28;86736;-44
2022/09/03 00:27:27;;;;;;;;;;;20.20;71.10;;;;;;5042439;27;88715;-43
2022/09/03 00:30:03;;;;;;;;;;;20.10;71.20;;;;;;5042169;28;87960;-46
2022/09/03 00:32:47;;;;;;;;;;;20.10;71.10;;;;;;5042476;28;87127;-44
2022/09/03 00:35:19;;;;;;;;;;;20.10;71.10;;;;;;5043119;28;87433;-45
2022/09/03 00:37:45;;;;;;;;;;;20.20;71.20;;;;;;5042017;28;89354;-46
2022/09/03 00:40:17;;;;;;;;;;;20.10;71.10;;;;;;5045162;28;87055;-48
2022/09/03 00:42:42;;;;;;;;;;;20.10;71.10;;;;;;5041544;28;88948;-45
2022/09/03 00:45:23;;;;;;;;;;;20.10;71.10;;;;;;5042267;28;86882;-45
2022/09/03 00:47:51;;;;;;;;;;;20.10;71.10;;;;;;5042505;28;87515;-44
2022/09/03 00:50:25;;;;;;;;;;;20.10;71.10;;;;;;5041969;28;87330;-44
2022/09/03 00:52:56;;;;;;;;;;;20.10;71.10;;;;;;5042587;28;86921;-45
2022/09/03 00:55:26;;;;;;;;;;;20.10;71.10;;;;;;5042179;28;87018;-46
2022/09/03 00:58:10;;;;;;;;;;;20.10;71.10;;;;;;5041719;28;88014;-43
2022/09/03 01:00:36;;;;;;;;;;;20.10;71.10;;;;;;5042698;28;86561;-44
2022/09/03 01:03:22;;;;;;;;;;;20.10;71.10;;;;;;5044545;27;88283;-43
2022/09/03 01:05:55;;;;;;;;;;;20.10;71.10;;;;;;5042034;28;87070;-47
2022/09/03 01:08:23;;;;;;;;;;;20.00;71.10;;;;;;5041248;27;88728;-43
2022/09/03 01:10:55;;;;;;;;;;;20.00;71.00;;;;;;5041650;28;87898;-43
2022/09/03 01:13:20;;;;;;;;;;;20.10;71.10;;;;;;5041949;28;87890;-45
2022/09/03 01:16:05;;;;;;;;;;;20.10;71.10;;;;;;5042136;28;87417;-45
2022/09/03 01:18:35;;;;;;;;;;;20.00;71.10;;;;;;5041698;28;87763;-44
2022/09/03 01:21:04;;;;;;;;;;;20.10;71.10;;;;;;5042575;27;86920;-43
2022/09/03 01:23:36;;;;;;;;;;;20.00;71.00;;;;;;5045499;28;87339;-45
2022/09/03 01:26:13;;;;;;;;;;;20.00;71.10;;;;;;5048258;28;87213;-45
2022/09/03 01:28:58;;;;;;;;;;;20.00;71.00;;;;;;5045381;27;88157;-46
2022/09/03 01:31:26;;;;;;;;;;;20.00;71.10;;;;;;5044812;28;89508;-46
2022/09/03 01:33:52;;;;;;;;;;;20.00;71.00;;;;;;5044186;28;87973;-44
2022/09/03 01:36:23;;;;;;;;;;;20.00;71.10;;;;;;5045199;28;88446;-44
2022/09/03 01:39:02;;;;;;;;;;;20.00;71.10;;;;;;5045045;28;88035;-45
2022/09/03 01:44:22;;;;;;;;;;;20.00;71.10;;;;;;5045355;28;86959;-45
2022/09/03 01:46:54;;;;;;;;;;;19.90;71.10;;;;;;5044349;28;89546;-45
2022/09/03 01:49:27;;;;;;;;;;;19.90;71.00;;;;;;5047407;28;87053;-45
2022/09/03 01:52:06;;;;;;;;;;;19.90;71.10;;;;;;5045086;28;87725;-45
2022/09/03 01:54:38;;;;;;;;;;;19.90;71.00;;;;;;5045141;28;86964;-43
2022/09/03 01:57:23;;;;;;;;;;;19.90;71.00;;;;;;5044773;28;88762;-44
2022/09/03 01:59:49;;;;;;;;;;;19.90;71.00;;;;;;5043471;28;90375;-44
2022/09/03 02:02:22;;;;;;;;;;;19.90;71.00;;;;;;5044868;28;87094;-45
2022/09/03 02:05:07;;;;;;;;;;;19.90;71.00;;;;;;5044626;27;88903;-43
2022/09/03 02:07:34;;;;;;;;;;;19.90;71.00;;;;;;5044153;28;88799;-45
2022/09/03 02:10:01;;;;;;;;;;;19.90;71.00;;;;;;5044339;28;87166;-44
2022/09/03 02:12:28;;;;;;;;;;;19.90;71.00;;;;;;5047056;27;88703;-44
2022/09/03 02:14:54;;;;;;;;;;;19.90;71.10;;;;;;5044355;28;86975;-44
2022/09/03 02:17:20;;;;;;;;;;;19.90;71.00;;;;;;5044979;27;87328;-45
2022/09/03 02:19:46;;;;;;;;;;;19.90;71.10;;;;;;5043996;28;90088;-44
2022/09/03 02:22:11;;;;;;;;;;;19.80;71.10;;;;;;5044465;28;87064;-44
2022/09/03 02:24:37;;;;;;;;;;;19.80;71.00;;;;;;5043796;27;87955;-44
2022/09/03 02:27:03;;;;;;;;;;;19.90;71.00;;;;;;5044142;28;88119;-44
2022/09/03 02:29:29;;;;;;;;;;;19.80;71.00;;;;;;5044306;28;87116;-46
2022/09/03 02:31:56;;;;;;;;;;;19.80;71.00;;;;;;5046238;27;89103;-46
2022/09/03 02:34:22;;;;;;;;;;;19.80;71.00;;;;;;5043560;27;87048;-45
2022/09/03 02:36:48;;;;;;;;;;;19.90;71.00;;;;;;5044360;27;87283;-43
2022/09/03 02:39:15;;;;;;;;;;;19.80;70.90;;;;;;5043479;28;89435;-44
2022/09/03 02:41:40;;;;;;;;;;;19.80;71.00;;;;;;5044768;28;86316;-43
2022/09/03 02:44:06;;;;;;;;;;;19.80;71.00;;;;;;5044478;28;86962;-45
2022/09/03 02:46:37;;;;;;;;;;;19.80;71.00;;;;;;5043808;28;88119;-46
2022/09/03 02:49:02;;;;;;;;;;;19.80;70.90;;;;;;5043077;28;87852;-46
2022/09/03 02:51:32;;;;;;;;;;;19.80;70.90;;;;;;5043877;27;89534;-44
2022/09/03 02:53:57;;;;;;;;;;;19.70;70.90;;;;;;5046499;28;88357;-44
2022/09/03 02:56:26;;;;;;;;;;;19.70;71.00;;;;;;5044029;28;87533;-46
2022/09/03 02:58:52;;;;;;;;;;;19.70;70.90;;;;;;5043268;28;89464;-44
2022/09/03 03:01:17;;;;;;;;;;;19.70;71.00;;;;;;5043989;28;87145;-45
2022/09/03 03:03:43;;;;;;;;;;;19.80;71.00;;;;;;5043901;28;87392;-45
2022/09/03 03:06:09;;;;;;;;;;;19.70;70.90;;;;;;5043873;28;86530;-44
2022/09/03 03:08:34;;;;;;;;;;;19.70;70.90;;;;;;5043781;28;87129;-44
2022/09/03 03:11:00;;;;;;;;;;;19.70;71.00;;;;;;5043888;28;87219;-46
2022/09/03 03:13:27;;;;;;;;;;;19.70;71.60;;;;;;5042592;28;90353;-45
2022/09/03 03:16:00;;;;;;;;;;;19.70;70.90;;;;;;5046715;28;87038;-45
2022/09/03 03:18:26;;;;;;;;;;;19.70;71.00;;;;;;5043050;28;89291;-42
2022/09/03 03:20:51;;;;;;;;;;;19.70;71.00;;;;;;5043676;28;87131;-46
2022/09/03 03:23:17;;;;;;;;;;;19.60;70.90;;;;;;5043187;28;87699;-47
2022/09/03 03:25:42;;;;;;;;;;;19.70;71.00;;;;;;5043262;28;87969;-46
2022/09/03 03:28:08;;;;;;;;;;;19.60;70.90;;;;;;5043726;28;87092;-43
2022/09/03 03:30:37;;;;;;;;;;;19.60;71.00;;;;;;5043898;28;87387;-45
2022/09/03 03:33:03;;;;;;;;;;;19.60;71.60;;;;;;5042826;28;87955;-44
2022/09/03 03:35:29;;;;;;;;;;;19.60;71.00;;;;;;5042930;28;87028;-43
2022/09/03 03:37:56;;;;;;;;;;;19.70;71.10;;;;;;5045352;28;87936;-44
2022/09/03 03:40:22;;;;;;;;;;;19.60;71.10;;;;;;5043363;28;86987;-47
2022/09/03 03:42:48;;;;;;;;;;;19.60;71.10;;;;;;5043414;28;87348;-47
2022/09/03 03:45:14;;;;;;;;;;;19.60;71.00;;;;;;5041595;27;87939;-44
2022/09/03 03:47:40;;;;;;;;;;;19.60;71.10;;;;;;5043378;28;87124;-44
2022/09/03 03:50:05;;;;;;;;;;;19.60;71.00;;;;;;5042789;28;87363;-45
2022/09/03 03:52:31;;;;;;;;;;;19.60;70.90;;;;;;5042206;28;90154;-47
2022/09/03 03:54:56;;;;;;;;;;;19.60;70.90;;;;;;5043581;28;86149;-43
2022/09/03 03:57:22;;;;;;;;;;;19.60;71.00;;;;;;5043286;28;86960;-46
2022/09/03 03:59:48;;;;;;;;;;;19.50;71.10;;;;;;5045440;28;89454;-45
2022/09/03 04:02:14;;;;;;;;;;;19.50;71.10;;;;;;5042562;27;88386;-43
2022/09/03 04:04:39;;;;;;;;;;;19.50;71.00;;;;;;5042819;28;87925;-45
2022/09/03 04:07:05;;;;;;;;;;;19.50;71.00;;;;;;5042576;28;87139;-46
2022/09/03 04:09:30;;;;;;;;;;;19.50;71.50;;;;;;5043033;27;87454;-47
2022/09/03 04:11:56;;;;;;;;;;;19.50;71.00;;;;;;5042705;28;87948;-44
2022/09/03 04:14:22;;;;;;;;;;;19.60;71.00;;;;;;5042510;28;87096;-43
2022/09/03 04:16:48;;;;;;;;;;;19.50;71.00;;;;;;5042859;27;87420;-43
2022/09/03 04:19:13;;;;;;;;;;;19.50;71.00;;;;;;5043175;28;87502;-43
2022/09/03 04:21:39;;;;;;;;;;;19.50;70.90;;;;;;5045413;28;87091;-46
2022/09/03 04:24:04;;;;;;;;;;;19.50;71.20;;;;;;5042429;28;87319;-44
2022/09/03 04:26:31;;;;;;;;;;;19.50;71.00;;;;;;5042007;28;87922;-46
2022/09/03 04:29:01;;;;;;;;;;;19.50;71.00;;;;;;5042654;28;88387;-42
2022/09/03 04:31:27;;;;;;;;;;;19.50;71.10;;;;;;5042234;28;87782;-46
2022/09/03 04:33:53;;;;;;;;;;;19.50;71.00;;;;;;5042416;28;87204;-45
2022/09/03 04:36:20;;;;;;;;;;;19.50;71.10;;;;;;5042339;27;87374;-46
2022/09/03 04:38:47;;;;;;;;;;;19.50;71.00;;;;;;5042194;28;88148;-45
2022/09/03 04:41:14;;;;;;;;;;;19.50;71.00;;;;;;5045527;28;87072;-44
2022/09/03 04:43:42;;;;;;;;;;;19.50;71.00;;;;;;5042476;28;86494;-44
2022/09/03 04:46:08;;;;;;;;;;;19.50;71.10;;;;;;5042137;28;87166;-46
2022/09/03 04:48:35;;;;;;;;;;;19.50;71.10;;;;;;5041872;27;87288;-43
2022/09/03 04:51:05;;;;;;;;;;;19.50;71.10;;;;;;5041065;28;90754;-43
2022/09/03 04:53:34;;;;;;;;;;;19.50;71.00;;;;;;5042130;28;87131;-46
2022/09/03 04:56:00;;;;;;;;;;;19.50;71.10;;;;;;5042813;27;87553;-46
2022/09/03 04:58:26;;;;;;;;;;;19.40;71.00;;;;;;5045535;28;87520;-45
2022/09/03 05:00:51;;;;;;;;;;;19.40;71.00;;;;;;5045956;28;87379;-44
2022/09/03 05:03:17;;;;;;;;;;;19.50;71.10;;;;;;5048108;27;88984;-43
2022/09/03 05:05:50;;;;;;;;;;;19.40;71.00;;;;;;5045728;28;87141;-45
2022/09/03 05:08:16;;;;;;;;;;;19.40;71.00;;;;;;5046406;27;87453;-44
2022/09/03 05:10:42;;;;;;;;;;;19.40;71.10;;;;;;5045327;28;88067;-45
2022/09/03 05:13:07;;;;;;;;;;;19.40;71.00;;;;;;5045650;28;87160;-47
2022/09/03 05:15:33;;;;;;;;;;;19.40;71.00;;;;;;5044820;28;88136;-45
2022/09/03 05:18:00;;;;;;;;;;;19.40;71.00;;;;;;5045123;28;88085;-45
2022/09/03 05:20:28;;;;;;;;;;;19.40;70.90;;;;;;5045125;28;87131;-44
2022/09/03 05:22:53;;;;;;;;;;;19.40;71.00;;;;;;5045103;27;89262;-44
2022/09/03 05:25:19;;;;;;;;;;;19.40;71.10;;;;;;5048073;28;87958;-43
2022/09/03 05:27:45;;;;;;;;;;;19.40;71.00;;;;;;5045389;28;87032;-44
2022/09/03 05:30:11;;;;;;;;;;;19.40;71.00;;;;;;5045020;28;87143;-45
2022/09/03 05:32:37;;;;;;;;;;;19.30;71.00;;;;;;5045386;28;86898;-44
2022/09/03 05:35:02;;;;;;;;;;;19.40;70.90;;;;;;5045138;28;88698;-45
2022/09/03 05:37:28;;;;;;;;;;;19.30;70.90;;;;;;5044952;28;88115;-44
2022/09/03 05:39:53;;;;;;;;;;;19.30;70.90;;;;;;5044716;28;88069;-44
2022/09/03 05:42:20;;;;;;;;;;;19.30;70.80;;;;;;5045236;27;89751;-43
2022/09/03 05:44:47;;;;;;;;;;;19.40;71.00;;;;;;5044680;28;88081;-45
2022/09/03 05:47:12;;;;;;;;;;;19.30;70.90;;;;;;5047499;28;87184;-43
2022/09/03 05:49:38;;;;;;;;;;;19.30;71.00;;;;;;5044215;28;88841;-43
2022/09/03 05:52:04;;;;;;;;;;;19.30;70.90;;;;;;5044658;28;87299;-47
2022/09/03 05:54:29;;;;;;;;;;;19.30;71.00;;;;;;5044998;28;87423;-48
2022/09/03 05:56:55;;;;;;;;;;;19.40;70.90;;;;;;5045112;28;87317;-45
2022/09/03 05:59:20;;;;;;;;;;;19.30;70.90;;;;;;5044906;28;87217;-44
2022/09/03 06:01:46;;;;;;;;;;;19.40;70.90;;;;;;5045082;28;87395;-44
2022/09/03 06:04:12;;;;;;;;;;;19.30;70.80;;;;;;5043286;28;90179;-43
2022/09/03 06:06:40;;;;;;;;;;;19.40;70.80;;;;;;5044643;28;87285;-44
2022/09/03 06:09:06;;;;;;;;;;;19.40;70.80;;;;;;5046168;27;88898;-45
2022/09/03 06:11:33;;;;;;;;;;;19.40;70.90;;;;;;5044635;28;87070;-43
2022/09/03 06:14:00;;;;;;;;;;;19.40;70.90;;;;;;5044377;27;89172;-44
2022/09/03 06:16:26;;;;;;;;;;;19.40;70.90;;;;;;5043796;28;89740;-42
2022/09/03 06:18:52;;;;;;;;;;;19.40;70.80;;;;;;5044802;28;86975;-43
2022/09/03 06:21:18;;;;;;;;;;;19.30;70.80;;;;;;5044969;27;88834;-44
2022/09/03 06:23:47;;;;;;;;;;;19.30;70.90;;;;;;5043996;28;89476;-44
2022/09/03 06:26:13;;;;;;;;;;;19.30;70.70;;;;;;5044206;28;86982;-45
2022/09/03 06:28:40;;;;;;;;;;;19.30;70.80;;;;;;5043731;28;87960;-46
2022/09/03 06:31:07;;;;;;;;;;;19.30;70.90;;;;;;5046744;28;89462;-46
2022/09/03 06:33:34;;;;;;;;;;;19.40;70.80;;;;;;5043954;27;87450;-43
2022/09/03 06:36:00;;;;;;;;;;;19.30;70.90;;;;;;5043887;28;87547;-45
2022/09/03 06:38:26;;;;;;;;;;;19.30;70.80;;;;;;5044114;28;87170;-43
2022/09/03 06:40:53;;;;;;;;;;;19.30;70.80;;;;;;5044523;28;87332;-44
2022/09/03 06:43:19;;;;;;;;;;;19.30;70.90;;;;;;5043793;28;89264;-43
2022/09/03 06:45:51;;;;;;;;;;;19.30;70.80;;;;;;5044109;28;87404;-45
2022/09/03 06:48:17;;;;;;;;;;;19.30;70.80;;;;;;5043934;27;87152;-45
2022/09/03 06:50:42;;;;;;;;;;;19.30;70.90;;;;;;5046833;28;88396;-46
2022/09/03 06:53:08;;;;;;;;;;;19.30;70.90;;;;;;5043688;28;87775;-45
2022/09/03 06:55:34;;;;;;;;;;;19.30;70.90;;;;;;5043376;28;89392;-43
2022/09/03 06:57:59;;;;;;;;;;;19.30;70.90;;;;;;5043754;28;88057;-43
2022/09/03 07:00:25;;;;;;;;;;;19.30;70.90;;;;;;5043958;28;87859;-45
2022/09/03 07:02:57;;;;;;;;;;;19.30;70.90;;;;;;5043690;28;88167;-45
2022/09/03 07:05:25;;;;;;;;;;;19.30;70.80;;;;;;5043590;28;87050;-43
2022/09/03 07:07:50;;;;;;;;;;;19.30;71.00;;;;;;5043730;27;89191;-45
2022/09/03 07:10:19;;;;;;;;;;;19.30;70.90;;;;;;5043998;28;87397;-46
2022/09/03 07:12:45;;;;;;;;;;;19.30;71.00;;;;;;5046452;28;87103;-44
2022/09/03 07:15:11;;;;;;;;;;;19.30;71.00;;;;;;5042783;28;89501;-43
2022/09/03 07:17:37;;;;;;;;;;;19.30;70.90;;;;;;5043039;28;87900;-43
2022/09/03 07:20:02;;;;;;;;;;;19.30;70.90;;;;;;5043118;27;89744;-47
2022/09/03 07:22:28;;;;;;;;;;;19.30;71.00;;;;;;5043138;28;87825;-45
2022/09/03 07:24:54;;;;;;;;;;;19.20;70.90;;;;;;5043531;28;87310;-45
2022/09/03 07:27:19;;;;;;;;;;;19.30;71.00;;;;;;5043396;28;87380;-45
2022/09/03 07:29:44;;;;;;;;;;;19.30;71.00;;;;;;5042961;28;87975;-46
2022/09/03 07:32:10;;;;;;;;;;;19.30;70.90;;;;;;5043511;28;87075;-43
2022/09/03 07:34:35;;;;;;;;;;;19.20;71.00;;;;;;5046147;28;87440;-44
2022/09/03 07:37:04;;;;;;;;;;;19.20;71.10;;;;;;5043436;28;87050;-44
2022/09/03 07:39:29;;;;;;;;;;;19.30;71.00;;;;;;5043051;27;87878;-43
2022/09/03 07:41:57;;;;;;;;;;;19.20;71.10;;;;;;5042061;28;89680;-45
2022/09/03 07:44:23;;;;;;;;;;;19.30;71.00;;;;;;5042770;28;87038;-45
2022/09/03 07:46:49;;;;;;;;;;;19.20;71.00;;;;;;5043325;28;87460;-42
2022/09/03 07:49:16;;;;;;;;;;;19.20;70.90;;;;;;5042218;28;87222;-44
2022/09/03 07:51:41;;;;;;;;;;;19.30;70.90;;;;;;5043316;28;86957;-44
2022/09/03 07:54:09;;;;;;;;;;;19.30;70.90;;;;;;5043102;28;87352;-45
2022/09/03 07:56:35;;;;;;;;;;;19.30;70.90;;;;;;5045280;28;89922;-43
2022/09/03 07:59:02;;;;;;;;;;;19.30;70.90;;;;;;5043277;27;87320;-44
2022/09/03 08:01:30;;;;;;;;;;;19.30;70.80;;;;;;5042542;28;89583;-45
2022/09/03 08:03:55;;;;;;;;;;;19.30;70.70;;;;;;5042819;28;87010;-44
2022/09/03 08:06:22;;;;;;;;;;;19.30;70.80;;;;;;5042159;27;88914;-46
2022/09/03 08:08:48;;;;;;;;;;;19.30;70.70;;;;;;5042594;28;88457;-46
2022/09/03 08:11:15;;;;;;;;;;;19.30;70.80;;;;;;5043027;28;87627;-46
2022/09/03 08:14:01;;;;;;;;;;;19.30;70.70;;;;;;5042652;27;88065;-45
2022/09/03 08:16:28;;;;;;;;;;;19.30;70.70;;;;;;5041988;28;89570;-45
2022/09/03 08:18:53;;;;;;;;;;;19.30;70.70;;;;;;5045865;28;87073;-45
2022/09/03 08:21:20;;;;;;;;;;;19.30;70.70;;;;;;5042419;28;87308;-46
2022/09/03 08:23:47;;;;;;;;;;;19.30;70.60;;;;;;5043077;28;86268;-46
2022/09/03 08:26:13;;;;;;;;;;;19.30;70.70;;;;;;5042432;27;86974;-46
2022/09/03 08:28:41;;;;;;;;;;;19.30;70.60;;;;;;5042151;28;87938;-44
2022/09/03 08:31:10;;;;;;;;;;;19.30;70.70;;;;;;5042374;27;88042;-44
2022/09/03 08:33:37;;;;;;;;;;;19.30;70.70;;;;;;5046012;27;88347;-46
2022/09/03 08:36:04;;;;;;;;;;;19.30;70.80;;;;;;5045903;28;87934;-46
2022/09/03 08:38:30;;;;;;;;;;;19.30;70.80;;;;;;5046224;28;87038;-43
2022/09/03 08:41:02;;;;;;;;;;;19.30;70.70;;;;;;5048646;27;87326;-45
2022/09/03 08:43:28;;;;;;;;;;;19.40;70.70;;;;;;5046210;28;87035;-46
2022/09/03 08:45:55;;;;;;;;;;;19.40;70.60;;;;;;5046221;27;87660;-44
2022/09/03 08:48:23;;;;;;;;;;;19.40;70.60;;;;;;5045326;28;88809;-45
2022/09/03 08:50:54;;;;;;;;;;;19.40;70.70;;;;;;5046136;28;86706;-47
2022/09/03 08:53:25;;;;;;;;;;;19.40;70.60;;;;;;5045700;27;88741;-46
2022/09/03 08:55:52;;;;;;;;;;;19.40;70.60;;;;;;5045041;28;89267;-45
2022/09/03 08:58:19;;;;;;;;;;;19.50;70.50;;;;;;5045691;28;87052;-43
2022/09/03 09:01:00;;;;;;;;;;;19.50;70.50;;;;;;5048402;27;87068;-45
2022/09/03 09:03:25;;;;;;;;;;;19.50;70.50;;;;;;5045729;28;87002;-44
2022/09/03 09:05:59;;;;;;;;;;;19.50;70.60;;;;;;5045830;28;86959;-44
2022/09/03 09:08:32;;;;;;;;;;;19.50;70.50;;;;;;5045246;28;88282;-44
2022/09/03 09:11:04;;;;;;;;;;;19.40;70.60;;;;;;5045398;28;87078;-46
2022/09/03 09:13:38;;;;;;;;;;;19.40;70.70;;;;;;5046102;27;88797;-44
2022/09/03 09:16:09;;;;;;;;;;;19.40;70.70;;;;;;5045301;28;88228;-48
2022/09/03 09:18:52;;;;;;;;;;;19.40;70.90;;;;;;5045390;28;87161;-43
2022/09/03 09:21:22;;;;;;;;;;;19.40;70.80;;;;;;5045101;28;87757;-44
2022/09/03 09:23:48;;;;;;;;;;;19.40;70.80;;;;;;5047820;28;87338;-44
2022/09/03 09:26:15;;;;;;;;;;;19.40;71.00;;;;;;5045417;27;88855;-45
2022/09/03 09:28:42;;;;;;;;;;;19.40;70.90;;;;;;5044806;28;88058;-43
2022/09/03 09:31:11;;;;;;;;;;;19.40;70.90;;;;;;5045331;28;87117;-46
2022/09/03 09:33:37;;;;;;;;;;;19.40;70.80;;;;;;5045086;27;87106;-46
2022/09/03 09:36:05;;;;;;;;;;;19.40;70.80;;;;;;5044931;28;88088;-45
2022/09/03 09:38:35;;;;;;;;;;;19.50;70.90;;;;;;5045885;28;86340;-48
2022/09/03 09:41:28;;;;;;;;;;;19.50;70.90;;;;;;5045146;28;88153;-45
2022/09/03 09:44:06;;;;;;;;;;;19.50;70.80;;;;;;5043489;28;87112;-45
2022/09/03 09:46:34;;;;;;;;;;;19.40;70.90;;;;;;5047768;28;87902;-46
2022/09/03 09:49:00;;;;;;;;;;;19.50;71.00;;;;;;5044177;28;87906;-46
2022/09/03 09:51:25;;;;;;;;;;;19.50;71.00;;;;;;5045057;28;87128;-45
2022/09/03 09:54:01;;;;;;;;;;;19.40;71.00;;;;;;5044866;27;88003;-44
2022/09/03 09:56:27;;;;;;;;;;;19.50;71.00;;;;;;5042945;28;89766;-45
2022/09/03 09:59:05;;;;;;;;;;;19.50;71.00;;;;;;5045056;28;87025;-45
2022/09/03 10:01:31;;;;;;;;;;;19.50;71.10;;;;;;5044735;28;87931;-45
2022/09/03 10:03:59;;;;;;;;;;;19.50;71.00;;;;;;5044775;28;88844;-44
2022/09/03 10:09:22;;;;;;;;;;;19.50;71.10;;;;;;5047491;28;87033;-44
2022/09/03 10:11:50;;;;;;;;;;;19.50;71.10;;;;;;5043888;28;87996;-44
2022/09/03 10:14:34;;;;;;;;;;;19.50;71.00;;;;;;5044256;28;89810;-45
2022/09/03 10:17:15;;;;;;;;;;;19.50;71.00;;;;;;5044360;28;87874;-46
2022/09/03 10:22:55;;;;;;;;;;;19.50;71.10;;;;;;5042206;27;87370;-47
2022/09/03 10:25:23;;;;;;;;;;;19.60;71.00;;;;;;5043638;28;88547;-46
2022/09/03 10:27:50;;;;;;;;;;;19.50;71.10;;;;;;5044454;28;87047;-46
2022/09/03 10:30:15;;;;;;;;;;;19.50;71.10;;;;;;5044756;28;87390;-43
2022/09/03 10:32:50;;;;;;;;;;;19.60;71.10;;;;;;5046845;28;88143;-46
2022/09/03 10:35:29;;;;;;;;;;;19.50;71.20;;;;;;5044020;28;87401;-43
2022/09/03 10:37:54;;;;;;;;;;;19.60;71.10;;;;;;5043060;28;88766;-46
2022/09/03 10:40:33;;;;;;;;;;;19.60;71.00;;;;;;5044280;28;87120;-46
2022/09/03 10:43:19;;;;;;;;;;;19.60;71.10;;;;;;5044500;27;87359;-45
2022/09/03 10:45:44;;;;;;;;;;;19.60;71.10;;;;;;5038638;28;88784;-48
2022/09/03 10:48:13;;;;;;;;;;;19.60;71.10;;;;;;5043752;28;87053;-45
2022/09/03 10:50:47;;;;;;;;;;;19.60;71.00;;;;;;5044093;28;87423;-44
2022/09/03 10:53:17;;;;;;;;;;;19.60;71.60;;;;;;5043867;28;87941;-43
2022/09/03 10:55:45;;;;;;;;;;;19.60;71.20;;;;;;5046481;28;86295;-45
2022/09/03 10:58:26;;;;;;;;;;;19.60;71.30;;;;;;5043734;28;87984;-43
2022/09/03 11:00:53;;;;;;;;;;;19.60;71.10;;;;;;5043839;28;87112;-45
2022/09/03 11:03:18;;;;;;;;;;;19.60;71.10;;;;;;5043393;27;87822;-46
2022/09/03 11:06:03;;;;;;;;;;;19.60;71.10;;;;;;5043485;28;87909;-45
2022/09/03 11:08:41;;;;;;;;;;;19.60;71.20;;;;;;5043711;28;86754;-44
2022/09/03 11:11:10;;;;;;;;;;;19.60;71.10;;;;;;5043577;28;88981;-48
2022/09/03 11:13:43;;;;;;;;;;;19.60;71.10;;;;;;5043580;28;87836;-46
2022/09/03 11:16:19;;;;;;;;;;;19.60;71.20;;;;;;5046928;28;86878;-43
2022/09/03 11:18:45;;;;;;;;;;;19.60;71.10;;;;;;5043479;28;88284;-44
2022/09/03 11:21:12;;;;;;;;;;;19.60;71.10;;;;;;5044268;28;86205;-46
2022/09/03 11:23:43;;;;;;;;;;;19.60;71.10;;;;;;5043692;27;87240;-46
2022/09/03 11:26:11;;;;;;;;;;;19.70;71.20;;;;;;5042916;28;88034;-49
2022/09/03 11:28:37;;;;;;;;;;;19.60;71.20;;;;;;5042659;28;88100;-44
2022/09/03 11:31:02;;;;;;;;;;;19.60;71.20;;;;;;5043470;27;88238;-47
2022/09/03 11:33:28;;;;;;;;;;;19.70;71.20;;;;;;5042593;28;89340;-44
2022/09/03 11:36:00;;;;;;;;;;;19.70;71.30;;;;;;5043145;28;87130;-43
2022/09/03 11:38:30;;;;;;;;;;;19.70;71.20;;;;;;5045794;27;87224;-46
2022/09/03 11:40:58;;;;;;;;;;;19.70;71.20;;;;;;5043170;28;86910;-45
2022/09/03 11:43:24;;;;;;;;;;;19.70;71.20;;;;;;5043293;28;86927;-45
2022/09/03 11:46:05;;;;;;;;;;;19.70;71.20;;;;;;5043118;28;88671;-45
2022/09/03 11:48:31;;;;;;;;;;;19.70;71.40;;;;;;5042640;28;87147;-43
2022/09/03 11:50:56;;;;;;;;;;;19.70;71.20;;;;;;5043102;27;87280;-43
2022/09/03 11:53:24;;;;;;;;;;;19.70;71.20;;;;;;5041738;28;90448;-47
2022/09/03 11:55:53;;;;;;;;;;;19.70;71.20;;;;;;5042905;28;87060;-44
2022/09/03 11:58:23;;;;;;;;;;;19.80;71.20;;;;;;5042852;27;88940;-46
2022/09/03 12:00:52;;;;;;;;;;;19.80;71.20;;;;;;5045512;28;89494;-46
2022/09/03 12:03:22;;;;;;;;;;;19.70;71.10;;;;;;5043051;27;87330;-45
2022/09/03 12:05:47;;;;;;;;;;;19.80;71.10;;;;;;5041161;27;88086;-44
2022/09/03 12:08:25;;;;;;;;;;;19.80;71.10;;;;;;5043048;28;86950;-45
2022/09/03 12:11:02;;;;;;;;;;;19.80;71.20;;;;;;5043420;28;86571;-45
2022/09/03 12:13:46;;;;;;;;;;;19.80;71.10;;;;;;5042520;28;88057;-44
2022/09/03 12:16:37;;;;;;;;;;;19.80;71.10;;;;;;5042435;28;87116;-43
2022/09/03 12:19:22;;;;;;;;;;;19.90;71.20;;;;;;5042384;27;87919;-44
2022/09/03 12:21:48;;;;;;;;;;;19.90;71.20;;;;;;5041778;28;90110;-43
2022/09/03 12:24:14;;;;;;;;;;;19.90;71.10;;;;;;5045406;28;87141;-46
2022/09/03 12:26:41;;;;;;;;;;;19.90;71.10;;;;;;5042178;28;89472;-45
2022/09/03 12:29:19;;;;;;;;;;;19.90;71.20;;;;;;5042742;28;87464;-46
2022/09/03 12:31:45;;;;;;;;;;;19.90;71.10;;;;;;5042589;27;88755;-43
2022/09/03 12:34:11;;;;;;;;;;;19.90;71.10;;;;;;5042121;28;88005;-45
2022/09/03 12:36:38;;;;;;;;;;;19.90;71.30;;;;;;5043022;28;86542;-44
2022/09/03 12:39:23;;;;;;;;;;;19.90;71.20;;;;;;5042490;27;87398;-44
2022/09/03 12:41:54;;;;;;;;;;;19.90;71.10;;;;;;5042262;28;87645;-43
2022/09/03 12:44:35;;;;;;;;;;;20.00;71.20;;;;;;5041582;28;88059;-44
2022/09/03 12:47:05;;;;;;;;;;;20.00;71.10;;;;;;5045039;28;88264;-43
2022/09/03 12:49:39;;;;;;;;;;;20.00;71.10;;;;;;5040485;28;87199;-43
2022/09/03 12:52:26;;;;;;;;;;;19.90;70.70;;;;;;5042392;28;87425;-45
2022/09/03 12:54:55;;;;;;;;;;;19.90;70.60;;;;;;5041938;28;87280;-46
2022/09/03 12:57:24;;;;;;;;;;;19.80;70.50;;;;;;5042130;28;87004;-42
2022/09/03 12:59:52;;;;;;;;;;;19.90;70.70;;;;;;5042282;27;87428;-43
2022/09/03 13:02:20;;;;;;;;;;;19.90;70.30;;;;;;5042250;28;87224;-41
2022/09/03 13:04:46;;;;;;;;;;;20.00;70.40;;;;;;5042232;28;87066;-44
2022/09/03 13:07:18;;;;;;;;;;;20.10;70.80;;;;;;5044436;27;88079;-40
2022/09/03 13:09:45;;;;;;;;;;;20.10;70.30;;;;;;5041798;28;87910;-43
2022/09/03 13:12:21;;;;;;;;;;;20.10;70.10;;;;;;5042100;27;87322;-42
2022/09/03 13:14:47;;;;;;;;;;;20.20;70.00;;;;;;5041341;28;87952;-43
2022/09/03 13:17:18;;;;;;;;;;;20.20;69.40;;;;;;5042824;27;87063;-43
2022/09/03 13:19:46;;;;;;;;;;;20.30;69.70;;;;;;5045868;28;87486;-42
2022/09/03 13:22:15;;;;;;;;;;;20.20;68.90;;;;;;5045064;28;88343;-40
2022/09/03 13:24:46;;;;;;;;;;;20.30;69.00;;;;;;5045525;28;86978;-41
2022/09/03 13:27:24;;;;;;;;;;;20.40;69.10;;;;;;5045736;27;88657;-43
2022/09/03 13:29:56;;;;;;;;;;;20.30;69.00;;;;;;5047903;28;89376;-42
2022/09/03 13:32:24;;;;;;;;;;;20.40;67.80;;;;;;5045303;28;88833;-40
2022/09/03 13:34:53;;;;;;;;;;;20.40;68.80;;;;;;5043823;28;90644;-46
2022/09/03 13:37:27;;;;;;;;;;;20.50;69.90;;;;;;5045173;28;86716;-42
2022/09/03 13:39:54;;;;;;;;;;;20.50;70.10;;;;;;5045001;27;88977;-42
2022/09/03 13:42:26;;;;;;;;;;;20.50;69.70;;;;;;5045058;28;88031;-41
2022/09/03 13:45:05;;;;;;;;;;;20.60;69.50;;;;;;5044966;28;86975;-44
2022/09/03 13:50:20;;;;;;;;;;;20.60;70.60;;;;;;5043820;28;90906;-44
2022/09/03 13:50:27;;;;;;;;;;;20.50;69.50;;;;;;5044677;28;88758;-44
2022/09/03 13:52:56;;;;;;;;;;;20.60;69.70;;;;;;5048458;28;86307;-43
2022/09/03 13:55:32;;;;;;;;;;;20.60;69.20;;;;;;5044437;28;89695;-41
2022/09/03 13:58:15;;;;;;;;;;;20.60;69.00;;;;;;5044750;28;87153;-41
2022/09/03 14:00:50;;;;;;;;;;;20.60;69.80;;;;;;5044297;27;88968;-43
2022/09/03 14:03:16;;;;;;;;;;;20.70;70.60;;;;;;5044558;28;88150;-43
2022/09/03 14:05:44;;;;;;;;;;;20.70;70.80;;;;;;5044726;28;87060;-46
2022/09/03 14:08:12;;;;;;;;;;;20.80;70.90;;;;;;5044748;27;88896;-45
2022/09/03 14:10:38;;;;;;;;;;;20.80;71.40;;;;;;5044243;28;89470;-42
2022/09/03 14:13:06;;;;;;;;;;;20.90;71.50;;;;;;5044634;28;87162;-42
2022/09/03 14:15:42;;;;;;;;;;;21.00;71.70;;;;;;5047271;28;87861;-43
2022/09/03 14:18:22;;;;;;;;;;;21.00;71.60;;;;;;5045080;27;86852;-50
2022/09/03 14:20:55;;;;;;;;;;;21.10;71.50;;;;;;5044945;28;86866;-44
2022/09/03 14:23:25;;;;;;;;;;;21.00;69.80;;;;;;5044239;28;88117;-44
2022/09/03 14:25:54;;;;;;;;;;;21.00;68.40;;;;;;5043750;28;88145;-46
2022/09/03 14:28:30;;;;;;;;;;;21.00;68.70;;;;;;5044292;27;88490;-51
2022/09/03 14:31:05;;;;;;;;;;;21.00;67.70;;;;;;5043695;28;88182;-43
2022/09/03 14:33:33;;;;;;;;;;;21.00;67.60;;;;;;5044302;28;87011;-44
2022/09/03 14:36:10;;;;;;;;;;;21.00;67.90;;;;;;5044264;28;87563;-45
2022/09/03 14:38:52;;;;;;;;;;;21.00;67.70;;;;;;5046582;28;89791;-46